METAR Data
IDs: Format: Raw Decoded Include TAF

Data at: 0910 UTC 19 Nov 2018

METAR for:KPEZ (Pleasanton Muni, TX, US)
Text:KPEZ 190855Z AUTO 04007KT 10SM OVC016 09/06 A3017 RMK AO2 T00860056
Temperature: 8.6°C ( 47°F)
Dewpoint: 5.6°C ( 42°F) [RH = 81%]
Pressure (altimeter):30.17 inches Hg (1021.8 mb)
Winds:from the NE (40 degrees) at 8 MPH (7 knots; 3.6 m/s)
Visibility:10 or more sm (16+ km)
Ceiling:1600 feet AGL
Clouds: overcast cloud deck at 1600 feet AGL
QC Flag:automated observation with no human augmentation